Colorado Springs, CO (80926)

9:39 AM MST on December 28, 2014 (GMT -0700)
APRSWXNET Colorado Springs CO US | Change Station
CLOSE
Current Station
Personal Weather Station
Location: Colorado Springs, CO
Elevation: 6420 ft
Nearby Weather Stations

Elev 6420 ft 38.68 °N, 104.86 °W | Updated 38 minutes ago

Clear
Clear
25 °F
Feels Like 25 °F
N
0
Wind Variable Wind from NW
Gusts 2.0 mph

Today
High -- | Low -- °F
--% Chance of Precip.
Yesterday
High -- | Low -- °F
Precip. -- in
7:16 AM 4:45 PM
Waxing Crescent, 49% visible
Pressure 30.14 in
Visibility 10.0 miles
Clouds Clear
Windchill 25 °F
Dew Point 9 °F
Humidity 50%
Rainfall 0.00 in
Snow Depth Not available.
UV 1 out of 12
Pollen .10 out of 12
Air Quality Not available.
Flu Activity Not available.
METAR KFCS 281558Z AUTO 01001KT 10SM CLR M06/M12 A2988 RMK AO2 SLP205 T10581123

More Conditions Fewer Conditions

Pressure 30.14 in
Visibility 10.0 miles
Clouds Clear
Windchill 25 °F
Dew Point 9 °F
Humidity 50%
Rainfall 0.00 in
Snow Depth Not available.
UV 1 out of 12
Pollen .10 out of 12
Air Quality Not available.
Flu Activity Not available.
METAR KFCS 281558Z AUTO 01001KT 10SM CLR M06/M12 A2988 RMK AO2 SLP205 T10581123

More Conditions Fewer Conditions

10-Day Weather Forecast

Almanac

Astronomy

Dec. 28, 2014 Rise Set
Actual Time
Civil Twilight
Nautical Twilight
Astronomical Twilight
Moon
Length of Visible Light
Length of Day
Tomorrow will be .
, % of the Moon is Illuminated

Today's Extremes

State Highs State Lows

Community

WunderPhotos

Upload Photos

1,781,329 photos uploaded!

WunderBlogs® & News

Nearby

Air Quality

  Air Quality AQ Index Pollutant
Not available.

Snow Depth

Station Depth Elevation

Earthquake Activity

City Distance Mag. Time & Date
Minimum magnitude displayed is 2.5.

Coastal Water Temperatures

Place Temperature

Nearby Weather Stations